createdAt,value
2016-11-09T00:00:14.636Z,89.00
2016-11-09T00:01:07.638Z,89.13
2016-11-09T00:02:08.257Z,89.33
2016-11-09T00:03:07.922Z,89.07
2016-11-09T00:04:08.227Z,89.39
2016-11-09T00:05:08.291Z,89.36
2016-11-09T00:06:07.957Z,89.27
2016-11-09T00:07:07.595Z,89.91
2016-11-09T00:08:08.320Z,90.08
2016-11-09T00:09:07.914Z,89.90
2016-11-09T00:10:07.539Z,90.09
2016-11-09T00:11:08.344Z,90.12
2016-11-09T00:12:07.921Z,90.15
2016-11-09T00:13:07.570Z,90.14
2016-11-09T00:14:08.309Z,90.31
2016-11-09T00:15:07.906Z,90.61
2016-11-09T00:16:08.799Z,90.45
2016-11-09T00:17:08.321Z,91.11
2016-11-09T00:18:08.097Z,91.40
2016-11-09T00:19:07.750Z,90.92
2016-11-09T00:20:07.401Z,90.87
2016-11-09T00:21:08.107Z,91.54
2016-11-09T00:22:07.762Z,91.49
2016-11-09T00:23:08.534Z,91.33
2016-11-09T00:24:08.041Z,91.68
2016-11-09T00:25:07.691Z,91.87
2016-11-09T00:26:07.399Z,91.94
2016-11-09T00:27:08.144Z,92.05
2016-11-09T00:28:07.752Z,92.25
2016-11-09T00:29:07.364Z,92.09
2016-11-09T00:30:09.211Z,91.82
2016-11-09T00:31:07.719Z,91.91
2016-11-09T00:32:07.454Z,92.28
2016-11-09T00:33:08.071Z,92.33
2016-11-09T00:34:07.705Z,92.24
2016-11-09T00:35:07.404Z,92.26
2016-11-09T00:36:08.028Z,92.30
2016-11-09T00:37:07.736Z,92.66
2016-11-09T00:38:08.403Z,92.69
2016-11-09T00:39:07.999Z,92.46
2016-11-09T00:40:07.669Z,92.58
2016-11-09T00:41:08.345Z,92.98
2016-11-09T00:42:08.035Z,93.03
2016-11-09T00:43:07.654Z,93.34
2016-11-09T00:44:08.320Z,93.68
2016-11-09T00:45:07.977Z,93.43
2016-11-09T00:46:07.644Z,93.42
2016-11-09T00:47:08.800Z,93.55
2016-11-09T00:48:07.961Z,93.63
2016-11-09T00:49:07.624Z,93.42
2016-11-09T00:50:08.329Z,93.26
2016-11-09T00:51:07.979Z,93.55
2016-11-09T00:52:07.626Z,93.57
2016-11-09T00:53:08.283Z,93.79
2016-11-09T00:54:07.899Z,94.00
2016-11-09T00:55:07.600Z,94.05
2016-11-09T00:56:08.186Z,93.87
2016-11-09T00:57:07.888Z,93.99
2016-11-09T00:58:07.534Z,94.08
2016-11-09T00:59:08.229Z,94.29
2016-11-09T01:00:07.904Z,94.26
2016-11-09T01:01:07.533Z,94.39
2016-11-09T01:02:08.265Z,94.31
2016-11-09T01:03:08.025Z,94.31
2016-11-09T01:04:07.628Z,94.23
2016-11-09T01:05:08.228Z,94.33
2016-11-09T01:06:07.920Z,94.32
2016-11-09T01:07:07.559Z,93.89
2016-11-09T01:08:08.247Z,93.92
2016-11-09T01:09:07.877Z,94.21
2016-11-09T01:10:07.562Z,94.59
2016-11-09T01:11:08.232Z,94.46
2016-11-09T01:12:07.985Z,94.43
2016-11-09T01:13:07.616Z,94.61
2016-11-09T01:14:08.276Z,94.64
2016-11-09T01:15:07.961Z,95.32
2016-11-09T01:16:07.601Z,95.50
2016-11-09T01:17:08.330Z,95.41
2016-11-09T01:18:08.107Z,95.58
2016-11-09T01:19:07.691Z,95.39
2016-11-09T01:20:08.382Z,95.24
2016-11-09T01:21:08.057Z,95.16
2016-11-09T01:22:07.732Z,95.21
2016-11-09T01:23:08.419Z,95.39
2016-11-09T01:24:08.095Z,95.42
2016-11-09T01:25:07.633Z,95.38
2016-11-09T01:26:08.295Z,95.27
2016-11-09T01:27:08.029Z,95.21
2016-11-09T01:28:07.643Z,95.25
2016-11-09T01:29:08.435Z,94.94
2016-11-09T01:30:08.033Z,95.03
2016-11-09T01:31:07.708Z,94.84
2016-11-09T01:32:08.404Z,94.79
2016-11-09T01:33:08.008Z,94.64
2016-11-09T01:34:07.663Z,94.52
2016-11-09T01:35:08.321Z,94.37
2016-11-09T01:36:07.954Z,94.39
2016-11-09T01:37:07.645Z,94.50
2016-11-09T01:38:08.364Z,94.87
2016-11-09T01:39:07.938Z,94.91
2016-11-09T01:40:07.611Z,94.99
2016-11-09T01:41:08.330Z,94.98
2016-11-09T01:42:07.951Z,94.74
2016-11-09T01:43:07.581Z,95.00
2016-11-09T01:44:08.262Z,95.04
2016-11-09T01:45:08.008Z,94.57
2016-11-09T01:46:07.574Z,94.29
2016-11-09T01:47:08.313Z,94.27
2016-11-09T01:48:07.963Z,94.51
2016-11-09T01:49:07.623Z,94.77
2016-11-09T01:50:08.359Z,94.70
2016-11-09T01:51:08.024Z,94.67
2016-11-09T01:52:07.682Z,94.79
2016-11-09T01:53:08.355Z,95.06
2016-11-09T01:54:07.967Z,94.92
2016-11-09T01:55:07.632Z,94.97
2016-11-09T01:56:08.337Z,95.46
2016-11-09T01:57:08.085Z,95.33
2016-11-09T01:58:07.693Z,95.64
2016-11-09T01:59:08.330Z,95.14
2016-11-09T02:00:08.020Z,94.77
2016-11-09T02:01:07.615Z,95.26
2016-11-09T02:02:08.355Z,94.75
2016-11-09T02:03:07.963Z,94.61
2016-11-09T02:04:07.651Z,94.66
2016-11-09T02:05:08.333Z,94.47
2016-11-09T02:06:08.017Z,94.29
2016-11-09T02:07:07.678Z,94.57
2016-11-09T02:08:08.350Z,94.51
2016-11-09T02:09:07.992Z,95.21
2016-11-09T02:10:07.669Z,95.32
2016-11-09T02:11:08.349Z,95.09
2016-11-09T02:12:08.014Z,95.01
2016-11-09T02:13:07.638Z,95.06
2016-11-09T02:14:08.302Z,95.00
2016-11-09T02:15:08.015Z,95.30
2016-11-09T02:16:07.682Z,95.12
2016-11-09T02:17:08.492Z,94.91
2016-11-09T02:18:08.161Z,95.12
2016-11-09T02:19:07.880Z,95.21
2016-11-09T02:20:07.476Z,94.61
2016-11-09T02:21:08.144Z,94.72
2016-11-09T02:22:07.817Z,94.48
2016-11-09T02:23:07.522Z,94.50
2016-11-09T02:24:08.149Z,94.46
2016-11-09T02:25:07.770Z,94.65
2016-11-09T02:26:07.480Z,94.74
2016-11-09T02:27:08.171Z,94.71
2016-11-09T02:28:07.784Z,94.88
2016-11-09T02:29:07.478Z,94.59
2016-11-09T02:30:08.141Z,94.79
2016-11-09T02:31:07.774Z,94.65
2016-11-09T02:32:07.492Z,94.97
2016-11-09T02:33:08.160Z,95.43
2016-11-09T02:34:07.789Z,95.59
2016-11-09T02:35:07.428Z,95.26
2016-11-09T02:36:08.114Z,94.93
2016-11-09T02:37:07.785Z,94.99
2016-11-09T02:38:07.447Z,95.42
2016-11-09T02:39:08.133Z,95.22
2016-11-09T02:40:07.768Z,95.25
2016-11-09T02:41:07.453Z,95.24
2016-11-09T02:42:08.152Z,95.25
2016-11-09T02:43:07.934Z,95.45
2016-11-09T02:44:07.466Z,95.63
2016-11-09T02:45:08.160Z,95.46
2016-11-09T02:46:07.808Z,95.26
2016-11-09T02:47:07.484Z,95.32
2016-11-09T02:48:08.212Z,95.45
2016-11-09T02:49:07.805Z,95.47
2016-11-09T02:50:07.463Z,95.35
2016-11-09T02:51:08.195Z,95.58
2016-11-09T02:52:07.794Z,95.50
2016-11-09T02:53:07.546Z,95.44
2016-11-09T02:54:08.211Z,95.41
2016-11-09T02:55:07.853Z,95.43
2016-11-09T02:56:07.510Z,95.70
2016-11-09T02:57:08.182Z,95.80
2016-11-09T02:58:07.914Z,95.47
2016-11-09T02:59:07.623Z,95.38
2016-11-09T03:00:08.204Z,95.39
2016-11-09T03:01:07.889Z,95.41
2016-11-09T03:02:07.499Z,95.51
2016-11-09T03:03:08.234Z,95.48
2016-11-09T03:04:07.885Z,95.47
2016-11-09T03:05:07.539Z,95.68
2016-11-09T03:06:08.225Z,95.59
2016-11-09T03:07:07.913Z,95.74
2016-11-09T03:08:07.576Z,95.63
2016-11-09T03:09:08.304Z,95.53
2016-11-09T03:10:08.974Z,95.62
2016-11-09T03:11:07.566Z,95.67
2016-11-09T03:12:08.231Z,95.66
2016-11-09T03:13:07.913Z,95.91
2016-11-09T03:14:07.698Z,95.75
2016-11-09T03:15:08.265Z,96.09
2016-11-09T03:16:07.929Z,96.53
2016-11-09T03:17:07.686Z,96.27
2016-11-09T03:18:13.961Z,96.32
2016-11-09T03:19:08.091Z,95.83
2016-11-09T03:20:08.807Z,95.83
2016-11-09T03:21:07.422Z,95.82
2016-11-09T03:22:08.088Z,96.19
2016-11-09T03:23:07.784Z,96.03
2016-11-09T03:24:07.466Z,96.05
2016-11-09T03:25:08.193Z,96.19
2016-11-09T03:26:07.743Z,96.10
2016-11-09T03:27:07.426Z,96.16
2016-11-09T03:28:08.112Z,96.08
2016-11-09T03:29:07.717Z,96.19
2016-11-09T03:30:08.413Z,96.09
2016-11-09T03:31:08.074Z,95.70
2016-11-09T03:32:07.736Z,95.58
2016-11-09T03:33:08.449Z,95.45
2016-11-09T03:34:08.052Z,95.16
2016-11-09T03:35:07.754Z,95.67
2016-11-09T03:36:08.425Z,95.20
2016-11-09T03:37:08.063Z,95.30
2016-11-09T03:38:07.755Z,95.47
2016-11-09T03:39:07.472Z,95.45
2016-11-09T03:40:08.092Z,95.29
2016-11-09T03:41:07.781Z,95.45
2016-11-09T03:42:07.432Z,95.31
2016-11-09T03:43:08.102Z,95.13
2016-11-09T03:44:07.816Z,95.46
2016-11-09T03:45:07.399Z,95.43
2016-11-09T03:46:08.098Z,95.61
2016-11-09T03:47:07.781Z,95.80
2016-11-09T03:48:07.431Z,95.91
2016-11-09T03:49:08.160Z,95.84
2016-11-09T03:50:07.772Z,95.66
2016-11-09T03:51:07.407Z,95.60
2016-11-09T03:52:08.054Z,95.52
2016-11-09T03:53:07.790Z,95.37
2016-11-09T03:54:08.448Z,95.21
2016-11-09T03:55:08.069Z,95.10
2016-11-09T03:56:07.767Z,95.16
2016-11-09T03:57:07.444Z,94.91
2016-11-09T03:58:14.607Z,94.75
2016-11-09T03:59:07.752Z,94.55
2016-11-09T04:00:07.460Z,94.56
2016-11-09T04:01:08.116Z,94.43
2016-11-09T04:02:07.703Z,94.47
2016-11-09T04:03:07.446Z,94.58
2016-11-09T04:04:08.075Z,94.66
2016-11-09T04:05:07.798Z,94.96
2016-11-09T04:06:07.454Z,94.77
2016-11-09T04:07:09.367Z,94.76
2016-11-09T04:08:09.754Z,94.88
2016-11-09T04:09:07.494Z,94.94
2016-11-09T04:10:08.136Z,94.65
2016-11-09T04:11:07.744Z,94.82
2016-11-09T04:12:07.415Z,94.56
2016-11-09T04:13:08.082Z,94.63
2016-11-09T04:14:07.749Z,94.73
2016-11-09T04:15:07.493Z,94.61
2016-11-09T04:16:08.092Z,94.82
2016-11-09T04:17:07.826Z,94.68
2016-11-09T04:18:07.535Z,94.24
2016-11-09T04:19:08.176Z,94.30
2016-11-09T04:20:07.893Z,94.57
2016-11-09T04:21:07.503Z,94.62
2016-11-09T04:22:08.198Z,94.55
2016-11-09T04:23:08.938Z,94.56
2016-11-09T04:24:07.576Z,94.39
2016-11-09T04:25:08.248Z,94.33
2016-11-09T04:26:08.440Z,94.15
2016-11-09T04:27:07.517Z,94.62
2016-11-09T04:28:08.248Z,94.71
2016-11-09T04:29:07.893Z,94.52
2016-11-09T04:30:07.565Z,94.63
2016-11-09T04:31:08.190Z,94.88
2016-11-09T04:32:07.866Z,94.58
2016-11-09T04:33:07.493Z,94.49
2016-11-09T04:34:08.168Z,94.94
2016-11-09T04:35:07.886Z,94.64
2016-11-09T04:36:07.512Z,94.87
2016-11-09T04:37:08.175Z,95.07
2016-11-09T04:38:07.859Z,95.01
2016-11-09T04:39:07.563Z,95.07
2016-11-09T04:40:08.237Z,95.01
2016-11-09T04:41:07.884Z,95.13
2016-11-09T04:42:07.542Z,95.05
2016-11-09T04:43:08.205Z,95.11
2016-11-09T04:44:07.868Z,94.93
2016-11-09T04:45:07.598Z,94.56
2016-11-09T04:46:08.237Z,94.81
2016-11-09T04:47:08.575Z,95.00
2016-11-09T04:48:07.694Z,94.93
2016-11-09T04:49:08.307Z,95.08
2016-11-09T04:50:14.550Z,95.25
2016-11-09T04:51:07.601Z,95.02
2016-11-09T04:52:08.257Z,95.04
2016-11-09T04:53:07.909Z,95.01
2016-11-09T04:54:07.603Z,95.45
2016-11-09T04:55:08.256Z,95.52
2016-11-09T04:56:07.958Z,95.73
2016-11-09T04:57:07.602Z,96.03
2016-11-09T04:58:08.246Z,95.70
2016-11-09T04:59:07.952Z,95.68
2016-11-09T05:00:07.683Z,95.37
2016-11-09T05:01:08.273Z,94.89
2016-11-09T05:02:07.963Z,95.57
2016-11-09T05:03:07.619Z,95.36
2016-11-09T05:04:08.294Z,95.32
2016-11-09T05:05:08.006Z,95.50
2016-11-09T05:06:07.631Z,95.27
2016-11-09T05:07:08.281Z,94.97
2016-11-09T05:08:07.941Z,95.06
2016-11-09T05:09:07.610Z,94.40
2016-11-09T05:10:08.439Z,94.44
2016-11-09T05:11:08.702Z,94.34
2016-11-09T05:12:07.722Z,94.01
2016-11-09T05:13:08.834Z,93.95
2016-11-09T05:14:07.454Z,94.33
2016-11-09T05:15:08.153Z,94.82
2016-11-09T05:16:07.750Z,94.57
2016-11-09T05:17:07.510Z,94.10
2016-11-09T05:18:08.224Z,93.84
2016-11-09T05:19:07.903Z,94.24
2016-11-09T05:20:07.647Z,94.23
2016-11-09T05:21:08.230Z,94.19
2016-11-09T05:22:07.915Z,93.89
2016-11-09T05:23:07.595Z,93.97
2016-11-09T05:24:08.258Z,94.27
2016-11-09T05:25:10.515Z,94.20
2016-11-09T05:26:08.250Z,94.67
2016-11-09T05:27:14.202Z,94.51
2016-11-09T05:28:07.630Z,94.04
2016-11-09T05:29:08.242Z,94.24
2016-11-09T05:30:07.934Z,94.53
2016-11-09T05:31:07.598Z,94.32
2016-11-09T05:32:08.277Z,94.37
2016-11-09T05:33:07.920Z,94.69
2016-11-09T05:34:07.584Z,94.14
2016-11-09T05:35:08.211Z,94.36
2016-11-09T05:36:07.948Z,94.83
2016-11-09T05:37:07.568Z,94.51
2016-11-09T05:38:08.283Z,94.20
2016-11-09T05:39:07.924Z,93.61
2016-11-09T05:40:07.576Z,93.94
2016-11-09T05:41:08.303Z,94.13
2016-11-09T05:42:07.930Z,94.03
2016-11-09T05:43:07.632Z,94.08
2016-11-09T05:44:08.262Z,94.17
2016-11-09T05:45:07.936Z,94.16
2016-11-09T05:46:07.632Z,93.67
2016-11-09T05:47:08.284Z,93.93
2016-11-09T05:48:07.921Z,94.23
2016-11-09T05:49:07.588Z,94.16
2016-11-09T05:50:08.277Z,94.13
2016-11-09T05:51:07.943Z,94.25
2016-11-09T05:52:07.594Z,94.42
2016-11-09T05:53:08.308Z,94.10
2016-11-09T05:54:07.915Z,93.94
2016-11-09T05:55:07.591Z,93.74
2016-11-09T05:56:08.310Z,93.98
2016-11-09T05:57:07.923Z,93.97
2016-11-09T05:58:07.685Z,94.57
2016-11-09T05:59:08.228Z,94.22
2016-11-09T06:00:07.923Z,94.41
2016-11-09T06:01:07.570Z,94.42
2016-11-09T06:02:08.190Z,93.86
2016-11-09T06:03:07.869Z,94.11
2016-11-09T06:04:07.560Z,94.26
2016-11-09T06:05:08.257Z,93.94
2016-11-09T06:06:07.946Z,93.98
2016-11-09T06:07:07.558Z,93.75
2016-11-09T06:08:08.287Z,93.82
2016-11-09T06:09:07.918Z,94.11
2016-11-09T06:10:07.552Z,94.13
2016-11-09T06:11:08.305Z,94.48
2016-11-09T06:12:07.913Z,94.59
2016-11-09T06:13:07.658Z,94.45
2016-11-09T06:14:08.270Z,94.17
2016-11-09T06:15:07.981Z,93.89
2016-11-09T06:16:07.667Z,94.17
2016-11-09T06:17:08.371Z,94.41
2016-11-09T06:18:08.167Z,94.17
2016-11-09T06:19:07.839Z,93.91
2016-11-09T06:20:07.524Z,93.96
2016-11-09T06:21:08.249Z,93.89
2016-11-09T06:22:07.847Z,93.85
2016-11-09T06:23:07.526Z,93.90
2016-11-09T06:24:08.175Z,93.77
2016-11-09T06:25:07.876Z,93.81
2016-11-09T06:26:07.534Z,93.89
2016-11-09T06:27:08.132Z,93.75
2016-11-09T06:28:07.823Z,93.22
2016-11-09T06:29:07.550Z,93.41
2016-11-09T06:30:08.149Z,93.10
2016-11-09T06:31:14.360Z,93.20
2016-11-09T06:32:07.436Z,93.10
2016-11-09T06:33:08.120Z,93.04
2016-11-09T06:34:07.746Z,92.92
2016-11-09T06:35:07.488Z,92.69
2016-11-09T06:36:08.136Z,92.88
2016-11-09T06:37:07.771Z,92.90
2016-11-09T06:38:07.442Z,92.67
2016-11-09T06:39:08.117Z,93.25
2016-11-09T06:40:07.755Z,92.59
2016-11-09T06:41:07.534Z,92.43
2016-11-09T06:42:08.063Z,92.78
2016-11-09T06:43:07.716Z,93.08
2016-11-09T06:44:07.421Z,92.58
2016-11-09T06:45:08.107Z,92.75
2016-11-09T06:46:07.805Z,93.06
2016-11-09T06:47:07.434Z,92.79
2016-11-09T06:48:08.100Z,92.59
2016-11-09T06:49:07.794Z,92.60
2016-11-09T06:50:07.465Z,92.44
2016-11-09T06:51:08.176Z,92.31
2016-11-09T06:52:07.813Z,92.71
2016-11-09T06:53:07.464Z,92.25
2016-11-09T06:54:08.104Z,92.54
2016-11-09T06:55:07.785Z,92.08
2016-11-09T06:56:07.534Z,92.14
2016-11-09T06:57:08.138Z,92.13
2016-11-09T06:58:07.833Z,92.45
2016-11-09T06:59:07.483Z,92.26
2016-11-09T07:00:08.151Z,91.87
2016-11-09T07:01:07.852Z,91.74
2016-11-09T07:02:07.452Z,91.78
2016-11-09T07:03:08.139Z,92.15
2016-11-09T07:04:07.780Z,92.20
2016-11-09T07:05:07.494Z,92.68
2016-11-09T07:06:08.153Z,92.56
2016-11-09T07:07:07.861Z,91.61
2016-11-09T07:08:07.462Z,92.21
2016-11-09T07:09:08.116Z,92.06
2016-11-09T07:10:07.733Z,91.70
2016-11-09T07:11:07.438Z,92.04
2016-11-09T07:12:08.139Z,91.49
2016-11-09T07:13:07.797Z,91.53
2016-11-09T07:14:07.421Z,91.67
2016-11-09T07:15:08.084Z,91.52
2016-11-09T07:16:07.747Z,90.66
2016-11-09T07:17:07.445Z,90.39
2016-11-09T07:18:08.249Z,90.62
2016-11-09T07:19:07.874Z,90.72
2016-11-09T07:20:07.563Z,91.07
2016-11-09T07:21:08.284Z,91.23
2016-11-09T07:22:07.897Z,91.05
2016-11-09T07:23:07.586Z,90.74
2016-11-09T07:24:08.292Z,92.00
2016-11-09T07:25:07.947Z,91.58
2016-11-09T07:26:07.604Z,91.29
2016-11-09T07:27:08.200Z,90.83
2016-11-09T07:28:07.901Z,91.40
2016-11-09T07:29:07.562Z,90.69
2016-11-09T07:30:08.168Z,90.54
2016-11-09T07:31:07.887Z,91.01
2016-11-09T07:32:07.519Z,90.63
2016-11-09T07:33:08.157Z,91.45
2016-11-09T07:34:07.882Z,91.72
2016-11-09T07:35:07.511Z,91.87
2016-11-09T07:36:08.227Z,90.76
2016-11-09T07:37:07.894Z,90.66
2016-11-09T07:38:07.537Z,90.92
2016-11-09T07:39:08.207Z,91.24
2016-11-09T07:40:07.869Z,91.02
2016-11-09T07:41:07.599Z,91.30
2016-11-09T07:42:08.271Z,90.69
2016-11-09T07:43:07.919Z,90.66
2016-11-09T07:44:07.575Z,91.09
2016-11-09T07:45:09.467Z,91.23
2016-11-09T07:46:35.632Z,90.38
2016-11-09T07:47:20.579Z,90.84
2016-11-09T07:48:07.488Z,91.40
2016-11-09T07:49:08.340Z,91.45
2016-11-09T07:50:07.933Z,91.34
2016-11-09T07:51:07.659Z,90.88
2016-11-09T07:52:08.613Z,89.75
2016-11-09T07:53:07.966Z,90.13
2016-11-09T07:54:07.766Z,90.68
2016-11-09T07:55:08.701Z,90.48
2016-11-09T07:56:08.049Z,90.02
2016-11-09T07:57:07.630Z,89.66
2016-11-09T07:58:08.290Z,90.07
2016-11-09T07:59:07.945Z,90.34
2016-11-09T08:00:07.854Z,90.10
2016-11-09T08:01:08.351Z,89.80
2016-11-09T08:02:08.061Z,89.99
2016-11-09T08:03:07.657Z,90.02
2016-11-09T08:04:08.299Z,89.84
2016-11-09T08:05:07.911Z,90.23
2016-11-09T08:06:07.597Z,90.34
2016-11-09T08:07:08.641Z,89.32
2016-11-09T08:08:08.031Z,89.46
2016-11-09T08:09:07.660Z,89.61
2016-11-09T08:10:08.434Z,89.73
2016-11-09T08:11:08.049Z,89.75
2016-11-09T08:12:07.623Z,89.31
2016-11-09T08:13:08.362Z,89.03
2016-11-09T08:14:07.997Z,89.64
2016-11-09T08:15:07.770Z,89.34
2016-11-09T08:16:09.824Z,89.16
2016-11-09T08:17:08.140Z,89.67
2016-11-09T08:18:07.905Z,89.43
2016-11-09T08:19:07.561Z,88.94
2016-11-09T08:20:08.233Z,89.25
2016-11-09T08:21:07.876Z,89.91
2016-11-09T08:22:07.577Z,89.18
2016-11-09T08:23:09.566Z,89.22
2016-11-09T08:24:07.891Z,89.60
2016-11-09T08:25:07.519Z,89.16
2016-11-09T08:26:08.169Z,89.97
2016-11-09T08:27:07.807Z,89.65
2016-11-09T08:28:07.518Z,89.61
2016-11-09T08:29:14.865Z,88.52
2016-11-09T08:30:07.856Z,89.19
2016-11-09T08:31:07.462Z,89.10
2016-11-09T08:32:08.195Z,87.74
2016-11-09T08:33:07.755Z,87.50
2016-11-09T08:34:07.483Z,88.48
2016-11-09T08:35:08.190Z,87.95
2016-11-09T08:36:07.844Z,87.51
2016-11-09T08:37:07.486Z,87.61
2016-11-09T08:38:08.076Z,87.56
2016-11-09T08:39:07.724Z,87.70
2016-11-09T08:40:07.495Z,89.26
2016-11-09T08:41:08.183Z,89.34
2016-11-09T08:42:14.603Z,89.75
2016-11-09T08:43:09.530Z,89.90
2016-11-09T08:44:08.203Z,88.76
2016-11-09T08:45:07.855Z,89.00
2016-11-09T08:46:07.484Z,89.28
2016-11-09T08:47:14.385Z,90.42
2016-11-09T08:48:07.783Z,89.46
2016-11-09T08:49:07.440Z,88.83
2016-11-09T08:50:08.135Z,88.39
2016-11-09T08:51:08.320Z,87.91
2016-11-09T08:52:08.425Z,88.84
2016-11-09T08:53:08.169Z,89.93
2016-11-09T08:54:07.780Z,89.19
2016-11-09T08:55:08.403Z,89.69
2016-11-09T08:56:20.318Z,90.90
2016-11-09T08:57:14.732Z,90.09
2016-11-09T08:58:08.503Z,90.48
2016-11-09T08:59:08.075Z,90.38
2016-11-09T09:00:07.696Z,90.19
2016-11-09T09:01:08.349Z,89.85
2016-11-09T09:02:08.128Z,89.63
2016-11-09T09:03:07.753Z,89.65
2016-11-09T09:04:08.368Z,90.06
2016-11-09T09:05:09.160Z,90.78
2016-11-09T09:06:08.795Z,90.64
2016-11-09T09:07:08.381Z,90.31
2016-11-09T09:08:08.100Z,91.03
2016-11-09T09:09:13.356Z,91.54
2016-11-09T09:10:08.345Z,90.47
2016-11-09T09:11:14.692Z,90.01
2016-11-09T09:12:07.685Z,89.47
2016-11-09T09:13:14.855Z,90.09
2016-11-09T09:14:08.058Z,90.78
2016-11-09T09:15:08.798Z,90.06
2016-11-09T09:16:08.400Z,88.24
2016-11-09T09:17:08.119Z,89.34
2016-11-09T09:18:07.958Z,89.34
2016-11-09T09:19:07.516Z,89.29
2016-11-09T09:20:08.282Z,89.86
2016-11-09T09:21:09.373Z,89.97
2016-11-09T09:22:07.558Z,89.90
2016-11-09T09:23:08.374Z,87.94
2016-11-09T09:24:07.966Z,88.62
2016-11-09T09:25:07.677Z,87.53
2016-11-09T09:26:08.325Z,88.29
2016-11-09T09:27:07.955Z,88.46
2016-11-09T09:28:07.631Z,89.27
2016-11-09T09:29:10.148Z,89.45
2016-11-09T09:30:07.976Z,89.58
2016-11-09T09:31:07.639Z,89.84
2016-11-09T09:32:08.232Z,89.70
2016-11-09T09:33:07.921Z,89.11
2016-11-09T09:34:07.568Z,88.43
2016-11-09T09:35:08.310Z,87.36
2016-11-09T09:36:08.044Z,84.38
2016-11-09T09:37:07.723Z,86.38
2016-11-09T09:38:08.377Z,87.93
2016-11-09T09:39:08.200Z,86.86
2016-11-09T09:40:07.639Z,86.51
2016-11-09T09:41:08.365Z,86.22
2016-11-09T09:42:07.958Z,85.41
2016-11-09T09:43:07.669Z,86.81
2016-11-09T09:44:08.326Z,87.00
2016-11-09T09:45:08.124Z,85.87
2016-11-09T09:46:07.705Z,86.72
2016-11-09T09:47:08.484Z,85.25
2016-11-09T09:48:08.087Z,82.43
2016-11-09T09:49:07.736Z,82.99
2016-11-09T09:50:08.463Z,82.89
2016-11-09T09:51:08.194Z,83.77
2016-11-09T09:52:07.749Z,84.67
2016-11-09T09:53:08.477Z,85.73
2016-11-09T09:54:20.462Z,84.83
2016-11-09T09:55:07.724Z,84.88
2016-11-09T09:56:08.471Z,83.97
2016-11-09T09:57:08.127Z,84.69
2016-11-09T09:58:07.826Z,85.89
2016-11-09T09:59:08.488Z,86.02
2016-11-09T10:00:08.121Z,85.10
2016-11-09T10:01:07.881Z,85.59
2016-11-09T10:02:08.039Z,82.33
2016-11-09T10:03:08.285Z,83.31
2016-11-09T10:04:07.832Z,83.42
2016-11-09T10:05:07.482Z,83.48
2016-11-09T10:06:08.235Z,84.27
2016-11-09T10:07:07.848Z,84.59
2016-11-09T10:08:07.536Z,84.44
2016-11-09T10:09:08.771Z,85.01
2016-11-09T10:10:09.130Z,85.54
2016-11-09T10:11:07.535Z,86.18
2016-11-09T10:12:08.226Z,85.13
2016-11-09T10:13:07.803Z,86.16
2016-11-09T10:14:07.467Z,85.03
2016-11-09T10:15:08.109Z,84.45
2016-11-09T10:16:07.746Z,86.80
2016-11-09T10:17:07.623Z,85.48
2016-11-09T10:18:08.834Z,84.25
2016-11-09T10:19:08.032Z,83.95
2016-11-09T10:20:07.659Z,83.81
2016-11-09T10:21:08.306Z,84.20
2016-11-09T10:22:07.962Z,82.79
2016-11-09T10:23:07.666Z,81.52
2016-11-09T10:24:08.296Z,81.23
2016-11-09T10:25:08.550Z,80.19
2016-11-09T10:26:07.646Z,82.49
2016-11-09T10:27:08.387Z,82.60
2016-11-09T10:28:09.166Z,83.11
2016-11-09T10:29:07.765Z,81.67
2016-11-09T10:30:08.305Z,83.66
2016-11-09T10:31:08.082Z,84.18
2016-11-09T10:32:07.802Z,81.29
2016-11-09T10:33:08.419Z,80.50
2016-11-09T10:34:08.101Z,80.93
2016-11-09T10:35:13.852Z,80.89
2016-11-09T10:36:08.416Z,82.09
2016-11-09T10:37:14.542Z,82.20
2016-11-09T10:38:14.227Z,82.41
2016-11-09T10:39:08.411Z,82.65
2016-11-09T10:40:08.012Z,80.91
2016-11-09T10:41:07.718Z,78.86
2016-11-09T10:42:08.379Z,78.01
2016-11-09T10:43:08.560Z,78.42
2016-11-09T10:44:07.681Z,81.04
2016-11-09T10:45:08.381Z,79.89
2016-11-09T10:46:14.592Z,79.84
2016-11-09T10:47:07.772Z,79.40
2016-11-09T10:48:08.407Z,77.38
2016-11-09T10:49:08.141Z,79.81
2016-11-09T10:50:07.695Z,78.45
2016-11-09T10:51:08.429Z,78.25
2016-11-09T10:52:08.028Z,76.64
2016-11-09T10:53:07.697Z,76.96
2016-11-09T10:54:08.428Z,76.56
2016-11-09T10:55:08.054Z,77.64
2016-11-09T10:56:07.673Z,80.19
2016-11-09T10:57:08.413Z,79.10
2016-11-09T10:58:08.050Z,79.06
2016-11-09T10:59:07.701Z,80.09
2016-11-09T11:00:08.433Z,81.22
2016-11-09T11:01:07.992Z,80.33
2016-11-09T11:02:07.636Z,82.46
2016-11-09T11:03:08.862Z,81.36
2016-11-09T11:04:08.089Z,81.17
2016-11-09T11:05:08.429Z,77.78
2016-11-09T11:06:15.077Z,77.19
2016-11-09T11:07:08.161Z,78.85
2016-11-09T11:08:08.459Z,75.73
2016-11-09T11:09:14.958Z,80.37
2016-11-09T11:10:08.120Z,80.03
2016-11-09T11:11:07.767Z,78.56
2016-11-09T11:12:08.435Z,79.20
2016-11-09T11:13:14.598Z,78.74
2016-11-09T11:14:07.745Z,76.97
2016-11-09T11:15:08.450Z,77.83
2016-11-09T11:16:08.140Z,80.19
2016-11-09T11:17:07.879Z,80.14
2016-11-09T11:18:07.682Z,76.85
2016-11-09T11:19:08.293Z,75.84
2016-11-09T11:20:07.893Z,76.12
2016-11-09T11:21:07.577Z,77.93
2016-11-09T11:22:14.994Z,77.01
2016-11-09T11:23:07.967Z,76.55
2016-11-09T11:24:07.656Z,76.43
2016-11-09T11:25:08.364Z,74.15
2016-11-09T11:26:07.987Z,78.56
2016-11-09T11:27:07.755Z,77.51
2016-11-09T11:28:08.242Z,76.58
2016-11-09T11:29:07.916Z,75.87
2016-11-09T11:30:07.677Z,78.40
2016-11-09T11:31:08.277Z,78.71
2016-11-09T11:32:07.908Z,79.42
2016-11-09T11:33:07.581Z,79.13
2016-11-09T11:34:08.332Z,77.32
2016-11-09T11:35:08.023Z,76.50
2016-11-09T11:36:07.666Z,75.27
2016-11-09T11:37:08.315Z,76.15
2016-11-09T11:38:08.027Z,74.49
2016-11-09T11:39:10.767Z,75.29
2016-11-09T11:40:08.404Z,78.10
2016-11-09T11:41:07.978Z,78.39
2016-11-09T11:42:07.670Z,74.53
2016-11-09T11:43:08.275Z,77.40
2016-11-09T11:44:07.984Z,76.45
2016-11-09T11:45:07.635Z,74.16
2016-11-09T11:46:08.316Z,74.80
2016-11-09T11:47:08.067Z,76.68
2016-11-09T11:48:07.757Z,77.40
2016-11-09T11:49:08.391Z,75.41
2016-11-09T11:50:08.089Z,75.24
2016-11-09T11:51:07.662Z,74.51
2016-11-09T11:52:08.389Z,73.99
2016-11-09T11:53:07.975Z,76.41
2016-11-09T11:54:07.661Z,77.05
2016-11-09T11:55:08.376Z,77.90
2016-11-09T11:56:08.039Z,77.91
2016-11-09T11:57:07.832Z,77.08
2016-11-09T11:58:08.413Z,77.21
2016-11-09T11:59:08.074Z,72.67
2016-11-09T12:00:07.801Z,73.08
2016-11-09T12:01:08.411Z,74.49
2016-11-09T12:02:08.113Z,73.43
2016-11-09T12:03:07.696Z,74.23
2016-11-09T12:04:08.420Z,75.32
2016-11-09T12:05:08.042Z,75.62
2016-11-09T12:06:07.708Z,77.37
2016-11-09T12:07:08.395Z,75.49
2016-11-09T12:08:08.099Z,74.93
2016-11-09T12:09:07.685Z,76.53
2016-11-09T12:10:08.373Z,73.95
2016-11-09T12:11:08.009Z,74.13
2016-11-09T12:12:07.701Z,74.71
2016-11-09T12:13:08.337Z,77.26
2016-11-09T12:14:08.029Z,76.66
2016-11-09T12:15:07.791Z,74.23
2016-11-09T12:16:08.372Z,73.80
2016-11-09T12:17:08.251Z,74.40
2016-11-09T12:18:08.344Z,71.65
2016-11-09T12:19:07.549Z,72.97
2016-11-09T12:20:08.293Z,73.32
2016-11-09T12:21:07.940Z,72.26
2016-11-09T12:22:08.126Z,75.04
2016-11-09T12:23:08.325Z,74.70
2016-11-09T12:24:08.997Z,72.23
2016-11-09T12:25:07.644Z,73.11
2016-11-09T12:26:08.277Z,72.88
2016-11-09T12:27:07.908Z,71.29
2016-11-09T12:28:07.543Z,70.60
2016-11-09T12:29:08.241Z,71.93
2016-11-09T12:30:07.959Z,73.84
2016-11-09T12:31:07.587Z,71.83
2016-11-09T12:32:08.288Z,71.32
2016-11-09T12:33:07.958Z,72.49
2016-11-09T12:34:07.632Z,71.40
2016-11-09T12:35:08.285Z,71.52
2016-11-09T12:36:07.979Z,73.79
2016-11-09T12:37:07.648Z,76.33
2016-11-09T12:38:08.383Z,77.09
2016-11-09T12:39:08.022Z,75.73
2016-11-09T12:40:07.706Z,71.83
2016-11-09T12:41:08.327Z,73.78
2016-11-09T12:42:08.032Z,71.62
2016-11-09T12:43:07.673Z,70.20
2016-11-09T12:44:08.456Z,73.25
2016-11-09T12:45:08.195Z,72.06
2016-11-09T12:46:07.855Z,72.92
2016-11-09T12:47:08.394Z,71.77
2016-11-09T12:48:10.106Z,70.97
2016-11-09T12:49:07.813Z,70.97
2016-11-09T12:50:08.476Z,72.07
2016-11-09T12:51:08.021Z,72.24
2016-11-09T12:52:07.686Z,70.61